Time;durP1;ratioP1;P1;durP2;ratioP2;P2;SDS_P1;SDS_P2;PMS_P1;PMS_P2;Temp;Humidity;BMP_temperature;BMP_pressure;BME280_temperature;BME280_humidity;BME280_pressure;Samples;Min_cycle;Max_cycle;Signal;HPM_P1;HPM_P2
2022/01/14 00:01:16;;;;;;;39.17;18.13;;;21.40;93.90;;;;;;4196540;28;20102;-65
2022/01/14 00:03:21;;;;;;;37.38;19.33;;;21.20;94.10;;;;;;4195965;28;20358;-65
2022/01/14 00:05:27;;;;;;;28.05;20.20;;;21.00;94.60;;;;;;4191446;28;20048;-65
2022/01/14 00:07:31;;;;;;;50.65;36.95;;;21.10;94.60;;;;;;4196858;28;20163;-65
2022/01/14 00:09:39;;;;;;;48.85;34.88;;;21.20;94.50;;;;;;4191242;28;20442;-65
2022/01/14 00:11:48;;;;;;;44.78;34.90;;;21.20;94.60;;;;;;4196326;28;20080;-65
2022/01/14 00:14:07;;;;;;;41.75;34.38;;;21.20;94.60;;;;;;4196048;28;20129;-65
2022/01/14 00:16:15;;;;;;;51.15;41.47;;;21.30;94.40;;;;;;4194388;28;20135;-65
2022/01/14 00:18:19;;;;;;;70.57;62.88;;;21.30;94.60;;;;;;4198417;28;20489;-65
2022/01/14 00:20:24;;;;;;;62.33;50.58;;;21.30;94.60;;;;;;4195365;28;20048;-65
2022/01/14 00:22:29;;;;;;;65.22;48.17;;;21.40;94.40;;;;;;4197857;28;20067;-64
2022/01/14 00:33:42;;;;;;;67.07;48.90;;;21.50;94.60;;;;;;4197536;28;20494;-66
2022/01/14 00:35:47;;;;;;;60.80;47.90;;;21.50;94.50;;;;;;4195554;28;20110;-62
2022/01/14 00:37:51;;;;;;;62.25;44.25;;;21.60;94.40;;;;;;4195963;28;20049;-66
2022/01/14 00:39:56;;;;;;;47.33;37.22;;;21.60;94.30;;;;;;4199158;28;20043;-66
2022/01/14 00:42:02;;;;;;;40.25;28.45;;;21.80;94.10;;;;;;4198911;28;20052;-67
2022/01/14 00:44:12;;;;;;;35.47;26.15;;;21.70;94.00;;;;;;4191499;28;20036;-66
2022/01/14 00:46:17;;;;;;;36.38;24.25;;;21.80;93.90;;;;;;4197581;28;20164;-67
2022/01/14 00:48:21;;;;;;;38.03;23.63;;;21.70;94.10;;;;;;4197617;28;20060;-67
2022/01/14 00:50:26;;;;;;;27.45;19.65;;;21.80;94.00;;;;;;4196808;28;20109;-66
2022/01/14 00:52:30;;;;;;;28.20;16.80;;;21.90;94.00;;;;;;4194510;28;20053;-65
2022/01/14 00:54:35;;;;;;;23.75;15.85;;;21.90;93.70;;;;;;4196703;28;20399;-65
2022/01/14 01:01:01;;;;;;;24.25;15.32;;;22.00;93.70;;;;;;4199612;28;20055;-66
2022/01/14 01:03:05;;;;;;;20.73;15.48;;;22.00;93.70;;;;;;4200379;28;20155;-65
2022/01/14 01:05:13;;;;;;;24.52;15.75;;;22.00;93.80;;;;;;4193948;28;20132;-64
2022/01/14 01:07:19;;;;;;;28.90;14.52;;;22.10;93.70;;;;;;4191584;28;20136;-66
2022/01/14 01:09:25;;;;;;;24.27;13.88;;;22.10;93.60;;;;;;4188426;28;20093;-66
2022/01/14 01:11:34;;;;;;;18.52;11.48;;;22.10;93.70;;;;;;4187869;28;20048;-66
2022/01/14 01:13:47;;;;;;;20.92;12.95;;;21.90;93.90;;;;;;4193611;28;20546;-66
2022/01/14 01:15:53;;;;;;;19.27;12.60;;;21.90;94.10;;;;;;4191694;28;20512;-67
2022/01/14 01:17:58;;;;;;;19.25;13.52;;;22.00;93.80;;;;;;4193596;28;20082;-67
2022/01/14 01:20:11;;;;;;;16.88;12.90;;;22.00;93.70;;;;;;4196485;28;20131;-66
2022/01/14 01:22:15;;;;;;;17.52;11.63;;;22.10;93.60;;;;;;4193583;28;20748;-66
2022/01/14 01:24:31;;;;;;;19.08;13.07;;;22.10;93.60;;;;;;4210435;28;20526;-66
2022/01/14 01:26:38;;;;;;;27.00;13.27;;;22.00;93.90;;;;;;4196049;28;20048;-65
2022/01/14 01:31:34;;;;;;;22.63;12.93;;;22.30;93.50;;;;;;4194692;28;20059;-66
2022/01/14 01:33:23;;;;;;;16.50;10.82;;;22.20;93.60;;;;;;4197171;28;20068;-66
2022/01/14 01:35:28;;;;;;;15.80;10.93;;;22.30;93.50;;;;;;4194651;28;20495;-66
2022/01/14 01:37:33;;;;;;;18.70;11.48;;;22.30;93.10;;;;;;4200196;28;20044;-65
2022/01/14 01:39:37;;;;;;;12.73;9.18;;;22.20;93.10;;;;;;4201245;28;20179;-65
2022/01/14 01:41:44;;;;;;;14.82;7.65;;;22.40;92.60;;;;;;4201582;28;20059;-64
2022/01/14 01:43:52;;;;;;;11.05;7.50;;;22.50;92.20;;;;;;4202766;28;20079;-65
2022/01/14 01:45:56;;;;;;;10.75;7.85;;;22.60;92.00;;;;;;4202182;28;20053;-66
2022/01/14 01:48:01;;;;;;;19.80;8.77;;;22.60;91.90;;;;;;4202122;28;20178;-64
2022/01/14 01:50:13;;;;;;;14.43;8.95;;;22.50;92.10;;;;;;4200714;28;20094;-65
2022/01/14 01:52:17;;;;;;;15.57;8.75;;;22.40;92.20;;;;;;4198858;28;20143;-64
2022/01/14 01:54:24;;;;;;;14.65;8.95;;;22.60;92.10;;;;;;4192834;28;20060;-65
2022/01/14 01:56:28;;;;;;;11.82;8.75;;;22.60;92.00;;;;;;4191677;28;20063;-66
2022/01/14 01:58:32;;;;;;;15.80;9.32;;;22.60;92.10;;;;;;4195693;28;20032;-65
2022/01/14 02:00:36;;;;;;;15.07;9.30;;;22.60;92.30;;;;;;4199413;28;20438;-63
2022/01/14 02:02:40;;;;;;;13.18;9.63;;;22.70;92.20;;;;;;4195380;28;20588;-65
2022/01/14 02:04:47;;;;;;;16.10;9.63;;;22.80;91.70;;;;;;4197123;28;20037;-65
2022/01/14 02:06:53;;;;;;;14.10;9.35;;;22.70;91.80;;;;;;4196373;28;20133;-64
2022/01/14 02:08:57;;;;;;;12.93;8.48;;;22.90;91.70;;;;;;4196650;28;20040;-63
2022/01/14 02:11:06;;;;;;;13.15;9.05;;;22.90;91.70;;;;;;4196406;28;20051;-63
2022/01/14 02:13:11;;;;;;;13.80;8.98;;;23.00;91.50;;;;;;4196745;28;20131;-65
2022/01/14 02:15:28;;;;;;;12.80;8.43;;;23.00;91.50;;;;;;4194984;28;20467;-64
2022/01/14 02:17:46;;;;;;;14.57;7.95;;;23.10;91.40;;;;;;4195271;28;20182;-64
2022/01/14 02:22:22;;;;;;;11.98;8.32;;;23.20;91.40;;;;;;4207320;28;20050;-64
2022/01/14 02:24:54;;;;;;;10.63;8.10;;;23.30;91.40;;;;;;4207304;28;20393;-64
2022/01/14 02:26:53;;;;;;;12.15;8.48;;;23.30;91.40;;;;;;4203133;28;20498;-63
2022/01/14 02:29:00;;;;;;;12.82;8.00;;;23.30;90.90;;;;;;4206502;28;20044;-63
2022/01/14 02:31:06;;;;;;;12.73;7.25;;;23.30;90.90;;;;;;4194901;28;20044;-64
2022/01/14 02:33:11;;;;;;;10.60;7.30;;;23.40;90.70;;;;;;4203044;28;20056;-65
2022/01/14 02:35:17;;;;;;;20.42;7.45;;;23.40;90.70;;;;;;4203054;28;20080;-63
2022/01/14 02:37:23;;;;;;;15.85;7.63;;;23.50;90.50;;;;;;4201166;28;20044;-65
2022/01/14 02:39:27;;;;;;;15.82;7.50;;;23.50;90.70;;;;;;4204091;28;20047;-64
2022/01/14 02:41:34;;;;;;;22.33;8.00;;;23.60;90.70;;;;;;4203631;28;20098;-64
2022/01/14 02:43:39;;;;;;;12.88;7.60;;;23.60;90.70;;;;;;4192783;28;20603;-65
2022/01/14 02:45:47;;;;;;;11.38;7.45;;;23.70;90.50;;;;;;4196023;28;20486;-64
2022/01/14 02:47:52;;;;;;;12.70;7.07;;;23.70;90.50;;;;;;4203492;28;20044;-65
2022/01/14 02:49:56;;;;;;;10.77;7.40;;;23.70;90.40;;;;;;4203381;28;20036;-65
2022/01/14 02:52:03;;;;;;;17.08;7.70;;;23.70;90.30;;;;;;4200538;28;20048;-65
2022/01/14 02:54:13;;;;;;;13.77;8.10;;;23.80;90.10;;;;;;4199417;28;20036;-64
2022/01/14 02:56:20;;;;;;;14.25;7.65;;;23.80;90.00;;;;;;4205497;28;20406;-64
2022/01/14 02:58:26;;;;;;;17.80;7.85;;;23.80;90.30;;;;;;4201263;28;20327;-64
2022/01/14 03:00:31;;;;;;;10.82;7.60;;;23.90;90.00;;;;;;4203476;28;20048;-63
2022/01/14 03:02:37;;;;;;;15.40;7.70;;;23.90;90.00;;;;;;4197490;28;20052;-66
2022/01/14 03:04:42;;;;;;;12.82;8.00;;;23.80;90.00;;;;;;4199906;28;20044;-65
2022/01/14 03:06:47;;;;;;;13.25;7.35;;;23.90;89.90;;;;;;4202440;28;20059;-65
2022/01/14 03:08:52;;;;;;;11.63;7.65;;;24.00;90.00;;;;;;4200396;28;20048;-63
2022/01/14 03:10:59;;;;;;;13.88;7.97;;;24.00;89.80;;;;;;4202357;28;20032;-65
2022/01/14 03:13:06;;;;;;;12.27;7.30;;;24.10;89.60;;;;;;4198522;28;20123;-65
2022/01/14 03:15:11;;;;;;;14.93;7.20;;;24.20;89.50;;;;;;4203226;28;20128;-65
2022/01/14 03:17:16;;;;;;;11.98;6.80;;;24.20;89.70;;;;;;4201526;28;20052;-65
2022/01/14 03:19:25;;;;;;;11.85;7.10;;;24.30;89.70;;;;;;4201767;28;20077;-65
2022/01/14 03:21:36;;;;;;;12.90;7.32;;;24.30;89.00;;;;;;4201076;28;20093;-65
2022/01/14 03:23:46;;;;;;;12.70;7.18;;;24.30;88.80;;;;;;4203064;28;20036;-65
2022/01/14 03:25:55;;;;;;;15.55;7.82;;;24.30;88.50;;;;;;4202354;28;20124;-64
2022/01/14 03:27:59;;;;;;;13.07;7.35;;;24.40;88.50;;;;;;4202758;28;20502;-65
2022/01/14 03:30:04;;;;;;;13.52;7.85;;;24.40;88.60;;;;;;4200741;28;20044;-65
2022/01/14 03:32:08;;;;;;;10.45;7.38;;;24.50;88.30;;;;;;4200487;28;20544;-65
2022/01/14 03:34:13;;;;;;;16.30;6.95;;;24.50;88.30;;;;;;4201710;28;20425;-65
2022/01/14 03:36:17;;;;;;;14.32;7.20;;;24.50;88.60;;;;;;4202505;28;20051;-65
2022/01/14 03:38:21;;;;;;;12.20;7.32;;;24.60;88.10;;;;;;4198325;28;20048;-64
2022/01/14 03:40:26;;;;;;;13.63;7.38;;;24.60;88.20;;;;;;4202354;28;20044;-64
2022/01/14 03:42:30;;;;;;;11.15;7.68;;;24.60;88.30;;;;;;4201565;28;20070;-65
2022/01/14 03:44:35;;;;;;;11.30;6.82;;;24.70;88.30;;;;;;4202521;28;20079;-66
2022/01/14 03:46:39;;;;;;;12.95;6.60;;;24.80;88.40;;;;;;4202485;28;20056;-66
2022/01/14 03:48:43;;;;;;;13.88;7.18;;;24.80;87.80;;;;;;4200225;28;20402;-65
2022/01/14 03:50:48;;;;;;;12.18;7.30;;;24.90;87.50;;;;;;4202426;28;20128;-65
2022/01/14 03:52:53;;;;;;;10.82;6.78;;;24.90;87.00;;;;;;4202540;28;20067;-65
2022/01/14 03:54:57;;;;;;;9.77;7.90;;;24.90;86.80;;;;;;4202478;28;20040;-65
2022/01/14 03:57:21;;;;;;;15.88;8.68;;;24.90;86.90;;;;;;4202456;28;20062;-66
2022/01/14 03:59:26;;;;;;;13.70;8.10;;;25.00;86.80;;;;;;4202341;28;20040;-65
2022/01/14 04:01:30;;;;;;;15.48;8.65;;;25.10;86.10;;;;;;4202768;28;20121;-65
2022/01/14 04:03:35;;;;;;;10.43;7.20;;;25.10;85.80;;;;;;4196369;28;20037;-66
2022/01/14 04:05:39;;;;;;;11.45;7.32;;;25.10;85.30;;;;;;4191994;28;20321;-66
2022/01/14 04:07:43;;;;;;;11.23;7.45;;;25.20;85.70;;;;;;4189342;28;20079;-66
2022/01/14 04:09:48;;;;;;;11.23;7.43;;;25.20;85.60;;;;;;4194106;28;20047;-65
2022/01/14 04:11:52;;;;;;;13.48;7.32;;;25.20;85.40;;;;;;4192440;28;20056;-65
2022/01/14 04:14:07;;;;;;;13.20;8.05;;;25.20;85.50;;;;;;4194238;28;20077;-66
2022/01/14 04:16:12;;;;;;;14.52;8.35;;;25.30;85.40;;;;;;4192078;28;20097;-66
2022/01/14 04:18:19;;;;;;;13.40;8.20;;;25.30;85.70;;;;;;4194094;28;20268;-66
2022/01/14 04:20:24;;;;;;;12.90;8.13;;;25.40;86.00;;;;;;4193406;28;20040;-65
2022/01/14 04:22:28;;;;;;;15.30;8.27;;;25.40;85.30;;;;;;4194219;28;20032;-65
2022/01/14 04:24:33;;;;;;;11.23;7.90;;;25.40;85.70;;;;;;4193364;28;20045;-65
2022/01/14 04:26:37;;;;;;;9.63;7.30;;;25.50;86.10;;;;;;4194111;28;20111;-65
2022/01/14 04:28:41;;;;;;;13.77;8.30;;;25.60;86.00;;;;;;4192638;28;20063;-65
2022/01/14 04:30:46;;;;;;;11.48;7.63;;;25.60;85.50;;;;;;4194663;28;20041;-65
2022/01/14 04:32:51;;;;;;;12.52;7.55;;;25.70;85.50;;;;;;4194204;28;20053;-65
2022/01/14 04:34:56;;;;;;;15.27;7.50;;;25.70;85.40;;;;;;4194133;28;20105;-66
2022/01/14 04:37:00;;;;;;;15.45;7.78;;;25.80;85.00;;;;;;4190443;28;20045;-67
2022/01/14 04:39:05;;;;;;;11.65;7.60;;;25.80;84.90;;;;;;4193825;28;20075;-66
2022/01/14 04:41:10;;;;;;;11.15;7.78;;;25.90;84.80;;;;;;4193958;28;20036;-66
2022/01/14 04:43:17;;;;;;;12.63;8.00;;;25.90;84.50;;;;;;4194329;28;20147;-66
2022/01/14 04:45:41;;;;;;;11.65;7.93;;;26.00;83.90;;;;;;4192216;28;20037;-67
2022/01/14 04:47:46;;;;;;;;;;;26.00;83.70;;;;;;4190678;28;20404;-67
2022/01/14 04:49:53;;;;;;;12.10;8.10;;;26.00;83.80;;;;;;4192479;28;20022;-67
2022/01/14 04:51:57;;;;;;;13.95;8.25;;;26.00;84.10;;;;;;4193996;28;20041;-68
2022/01/14 04:54:03;;;;;;;12.18;8.93;;;26.10;84.10;;;;;;4194781;28;20125;-67
2022/01/14 04:56:08;;;;;;;14.38;8.75;;;26.20;84.00;;;;;;4195553;28;20237;-67
2022/01/14 04:58:16;;;;;;;12.32;9.07;;;26.20;84.00;;;;;;4195714;28;20049;-67
2022/01/14 05:00:25;;;;;;;13.98;10.00;;;26.20;83.70;;;;;;4196893;28;20045;-67
2022/01/14 05:02:29;;;;;;;13.95;10.25;;;26.30;83.70;;;;;;4195587;28;20082;-66
2022/01/14 05:04:34;;;;;;;15.32;10.60;;;26.40;83.90;;;;;;4196909;28;20453;-66
2022/01/14 05:06:40;;;;;;;17.42;9.80;;;26.40;83.80;;;;;;4196831;28;20036;-66
2022/01/14 05:08:44;;;;;;;14.70;9.57;;;26.40;83.20;;;;;;4197520;28;20072;-67
2022/01/14 05:12:58;;;;;;;15.52;8.10;;;26.50;82.80;;;;;;4196164;28;20047;-66
2022/01/14 05:15:03;;;;;;;21.13;8.63;;;26.60;81.60;;;;;;4210599;28;20060;-66
2022/01/14 05:17:08;;;;;;;12.77;9.35;;;26.60;82.10;;;;;;4196578;28;20421;-66
2022/01/14 05:19:12;;;;;;;14.30;8.57;;;26.60;82.30;;;;;;4195921;28;20037;-67
2022/01/14 05:21:17;;;;;;;14.48;9.55;;;26.60;81.60;;;;;;4196300;28;20052;-66
2022/01/14 05:23:24;;;;;;;13.68;8.98;;;26.70;81.80;;;;;;4201807;28;20051;-66
2022/01/14 05:25:28;;;;;;;14.63;8.55;;;26.80;82.10;;;;;;4194084;28;20041;-66
2022/01/14 05:27:35;;;;;;;14.23;8.13;;;26.80;81.40;;;;;;4196060;28;20076;-66
2022/01/14 05:29:39;;;;;;;13.13;8.45;;;26.80;81.40;;;;;;4195763;28;20040;-66
2022/01/14 05:31:51;;;;;;;15.00;8.48;;;26.90;81.70;;;;;;4204074;28;20117;-66
2022/01/14 05:33:55;;;;;;;15.38;9.13;;;27.00;82.00;;;;;;4194718;28;20135;-67
2022/01/14 05:35:59;;;;;;;14.30;8.40;;;27.00;81.70;;;;;;4195824;28;20463;-66
2022/01/14 05:38:04;;;;;;;13.48;8.73;;;27.00;81.40;;;;;;4200234;28;20049;-66
2022/01/14 05:40:09;;;;;;;16.08;8.45;;;27.00;81.10;;;;;;4200021;28;20045;-66
2022/01/14 05:42:13;;;;;;;10.18;8.18;;;27.10;81.00;;;;;;4201305;28;20130;-65
2022/01/14 05:44:18;;;;;;;12.23;8.85;;;27.10;80.60;;;;;;4203561;28;20491;-66
2022/01/14 05:46:22;;;;;;;19.73;9.10;;;27.10;79.80;;;;;;4202239;28;20151;-65
2022/01/14 05:48:27;;;;;;;17.02;8.73;;;27.10;80.50;;;;;;4203709;28;20064;-65
2022/01/14 05:50:31;;;;;;;18.25;8.40;;;27.10;80.70;;;;;;4203596;28;20769;-66
2022/01/14 05:52:36;;;;;;;11.75;8.23;;;27.10;80.70;;;;;;4194943;28;20044;-66
2022/01/14 05:54:40;;;;;;;17.67;8.73;;;27.20;80.80;;;;;;4197546;28;20055;-66
2022/01/14 05:56:45;;;;;;;12.10;7.63;;;27.30;80.60;;;;;;4199553;28;20040;-66
2022/01/14 05:58:50;;;;;;;13.77;8.55;;;27.30;80.20;;;;;;4199915;28;20044;-65
2022/01/14 06:00:54;;;;;;;12.13;8.32;;;27.40;79.60;;;;;;4201660;28;20448;-67
2022/01/14 06:02:58;;;;;;;13.82;8.35;;;27.40;79.20;;;;;;4204230;28;20036;-67
2022/01/14 06:05:07;;;;;;;12.00;8.07;;;27.40;79.40;;;;;;4202822;28;20051;-67
2022/01/14 06:07:11;;;;;;;10.68;8.57;;;27.50;79.50;;;;;;4204061;28;20043;-66
2022/01/14 06:09:16;;;;;;;12.93;8.02;;;27.50;79.40;;;;;;4199019;28;20044;-67
2022/01/14 06:11:20;;;;;;;13.30;7.93;;;27.50;79.00;;;;;;4203492;28;20044;-67
2022/01/14 06:13:25;;;;;;;12.70;8.18;;;27.60;77.70;;;;;;4200862;28;20054;-67
2022/01/14 06:15:30;;;;;;;9.85;7.78;;;27.60;78.50;;;;;;4205181;28;20448;-66
2022/01/14 06:17:34;;;;;;;13.10;9.30;;;27.70;78.50;;;;;;4201406;28;20067;-66
2022/01/14 06:19:38;;;;;;;11.73;8.85;;;27.70;77.60;;;;;;4203690;28;20490;-67
2022/01/14 06:21:43;;;;;;;17.13;8.68;;;27.70;78.10;;;;;;4203703;28;20143;-67
2022/01/14 06:23:47;;;;;;;16.40;8.95;;;27.60;78.10;;;;;;4203616;28;20055;-66
2022/01/14 06:25:58;;;;;;;19.00;8.57;;;27.60;78.30;;;;;;4201423;28;20578;-66
2022/01/14 06:28:02;;;;;;;11.55;8.27;;;27.60;78.90;;;;;;4203786;28;20115;-66
2022/01/14 06:30:07;;;;;;;13.93;8.18;;;27.70;78.70;;;;;;4204082;28;20572;-66
2022/01/14 06:32:11;;;;;;;20.05;7.13;;;27.70;77.80;;;;;;4204378;28;20040;-66
2022/01/14 06:34:15;;;;;;;11.15;6.47;;;27.70;77.50;;;;;;4201503;28;20490;-66
2022/01/14 06:36:20;;;;;;;14.00;6.93;;;27.70;76.70;;;;;;4203623;28;20044;-65
2022/01/14 06:38:24;;;;;;;10.38;6.43;;;27.70;76.20;;;;;;4203208;28;20062;-66
2022/01/14 06:40:29;;;;;;;10.13;6.40;;;27.70;75.90;;;;;;4203863;28;20040;-67
2022/01/14 06:42:34;;;;;;;9.50;5.88;;;27.70;75.10;;;;;;4203142;28;20518;-67
2022/01/14 06:44:38;;;;;;;10.02;6.80;;;27.70;75.10;;;;;;4201213;28;20464;-67
2022/01/14 06:46:42;;;;;;;12.38;7.18;;;27.70;75.40;;;;;;4203605;28;20147;-67
2022/01/14 06:48:47;;;;;;;10.95;6.85;;;27.70;76.30;;;;;;4203413;28;20504;-67
2022/01/14 06:50:51;;;;;;;11.45;6.97;;;27.90;75.30;;;;;;4202048;28;20163;-67
2022/01/14 06:52:56;;;;;;;10.07;6.32;;;27.80;75.10;;;;;;4203334;28;20081;-67
2022/01/14 06:55:00;;;;;;;11.50;6.25;;;27.80;75.00;;;;;;4203657;28;20459;-67
2022/01/14 06:57:05;;;;;;;8.63;6.20;;;27.90;74.40;;;;;;4203141;28;20043;-67
2022/01/14 06:59:09;;;;;;;10.20;5.57;;;27.80;74.70;;;;;;4189943;28;20052;-67
2022/01/14 07:01:14;;;;;;;14.30;6.07;;;27.80;74.80;;;;;;4198313;28;20067;-68
2022/01/14 07:03:18;;;;;;;9.25;5.97;;;27.80;74.80;;;;;;4195159;28;20056;-67
2022/01/14 07:05:22;;;;;;;12.07;5.18;;;27.80;74.20;;;;;;4198348;28;20125;-67
2022/01/14 07:07:27;;;;;;;14.52;6.05;;;27.80;74.40;;;;;;4198512;28;20067;-67
2022/01/14 07:09:34;;;;;;;11.60;5.63;;;27.80;74.50;;;;;;4200496;28;20055;-66
2022/01/14 07:11:39;;;;;;;12.60;5.28;;;28.00;74.60;;;;;;4190909;28;20077;-65
2022/01/14 07:13:43;;;;;;;10.30;6.20;;;28.00;73.40;;;;;;4199425;28;20066;-66
2022/01/14 07:15:47;;;;;;;15.93;5.60;;;28.00;74.40;;;;;;4195698;28;20553;-65
2022/01/14 07:17:56;;;;;;;16.08;6.47;;;28.00;74.50;;;;;;4198410;28;20372;-65
2022/01/14 07:20:11;;;;;;;7.38;5.40;;;28.00;74.30;;;;;;4193225;28;20416;-68
2022/01/14 07:22:15;;;;;;;10.27;5.80;;;28.00;74.30;;;;;;4189241;28;20056;-66
2022/01/14 07:24:19;;;;;;;16.17;5.50;;;28.10;74.70;;;;;;4196278;28;20147;-66
2022/01/14 07:26:24;;;;;;;8.88;5.55;;;28.10;74.20;;;;;;4194720;28;20044;-66
2022/01/14 07:28:28;;;;;;;15.77;6.22;;;28.20;74.50;;;;;;4195778;28;20055;-66
2022/01/14 07:30:33;;;;;;;10.00;5.55;;;28.10;74.00;;;;;;4192249;28;20056;-66
2022/01/14 07:32:37;;;;;;;9.98;6.20;;;28.10;73.90;;;;;;4191694;28;20047;-66
2022/01/14 07:34:41;;;;;;;10.18;5.68;;;28.10;73.30;;;;;;4190265;28;20082;-66
2022/01/14 07:36:46;;;;;;;13.55;6.05;;;28.10;73.30;;;;;;4189691;28;20118;-66
2022/01/14 07:38:50;;;;;;;10.65;5.90;;;28.20;73.20;;;;;;4189436;28;20098;-66
2022/01/14 07:40:55;;;;;;;9.98;6.05;;;28.20;73.20;;;;;;4191805;28;20054;-65
2022/01/14 07:42:59;;;;;;;10.02;5.70;;;28.10;72.90;;;;;;4197437;28;20113;-66
2022/01/14 07:45:04;;;;;;;10.13;6.45;;;28.20;73.20;;;;;;4199075;28;20126;-66
2022/01/14 07:47:08;;;;;;;12.07;6.22;;;28.20;73.20;;;;;;4195883;28;20638;-66
2022/01/14 07:49:12;;;;;;;11.05;5.70;;;28.20;73.30;;;;;;4210295;28;20046;-65
2022/01/14 07:51:17;;;;;;;12.55;6.00;;;28.20;73.60;;;;;;4192857;28;20093;-65
2022/01/14 07:53:21;;;;;;;7.95;5.85;;;28.20;73.40;;;;;;4189136;28;20534;-66
2022/01/14 07:55:26;;;;;;;11.02;6.00;;;28.20;73.60;;;;;;4198098;28;20059;-65
2022/01/14 07:57:30;;;;;;;12.25;6.07;;;28.20;73.90;;;;;;4196065;28;20476;-66
2022/01/14 07:59:35;;;;;;;10.55;6.28;;;28.20;74.00;;;;;;4187251;28;20108;-66
2022/01/14 08:01:41;;;;;;;10.88;5.32;;;28.20;72.90;;;;;;4183470;28;20115;-66
2022/01/14 08:03:46;;;;;;;11.20;5.78;;;28.20;73.40;;;;;;4156540;28;20049;-67
2022/01/14 08:05:53;;;;;;;14.90;6.18;;;28.20;73.30;;;;;;4176806;28;20484;-66
2022/01/14 08:08:03;;;;;;;6.60;5.35;;;28.20;73.30;;;;;;4179832;28;20048;-65
2022/01/14 08:10:09;;;;;;;8.88;5.57;;;28.20;73.40;;;;;;4173206;28;20076;-66
2022/01/14 08:12:13;;;;;;;8.23;5.88;;;28.20;73.80;;;;;;4172041;28;20106;-66
2022/01/14 08:14:18;;;;;;;11.55;6.03;;;28.20;73.20;;;;;;4167138;28;20628;-65
2022/01/14 08:16:22;;;;;;;9.50;5.95;;;28.20;73.20;;;;;;4152966;28;20127;-65
2022/01/14 08:18:28;;;;;;;8.30;6.32;;;28.20;73.30;;;;;;4170359;28;20140;-65
2022/01/14 08:20:32;;;;;;;11.65;7.10;;;28.20;72.80;;;;;;4165440;28;20103;-65
2022/01/14 08:22:37;;;;;;;15.00;6.88;;;28.20;72.60;;;;;;4168957;28;20132;-66
2022/01/14 08:24:41;;;;;;;13.63;6.60;;;28.20;73.30;;;;;;4168931;28;20049;-65
2022/01/14 08:26:47;;;;;;;9.40;6.80;;;28.20;72.70;;;;;;4169090;28;20821;-65
2022/01/14 08:28:51;;;;;;;10.82;7.32;;;28.30;73.60;;;;;;4172526;28;20055;-65
2022/01/14 08:30:55;;;;;;;9.73;6.75;;;28.30;73.70;;;;;;4184373;28;20056;-65
2022/01/14 08:33:00;;;;;;;13.07;8.65;;;28.30;74.50;;;;;;4193407;28;20052;-65
2022/01/14 08:35:05;;;;;;;13.98;8.00;;;28.30;73.40;;;;;;4184045;28;20054;-65
2022/01/14 08:37:09;;;;;;;14.20;8.23;;;28.30;73.30;;;;;;4186208;28;20082;-65
2022/01/14 08:39:13;;;;;;;13.38;7.53;;;28.40;72.50;;;;;;4189713;28;20045;-65
2022/01/14 08:41:19;;;;;;;11.38;7.00;;;28.30;73.10;;;;;;4192495;28;20056;-64
2022/01/14 08:43:23;;;;;;;12.57;7.32;;;28.30;73.00;;;;;;4190236;28;20063;-64
2022/01/14 08:45:28;;;;;;;13.00;7.13;;;28.30;73.10;;;;;;4181110;28;20056;-65
2022/01/14 08:47:33;;;;;;;16.83;7.97;;;28.40;72.80;;;;;;4182760;28;20557;-65
2022/01/14 08:49:41;;;;;;;17.65;7.38;;;28.40;72.60;;;;;;4182990;28;20099;-65
2022/01/14 08:51:47;;;;;;;10.30;7.10;;;28.50;72.90;;;;;;4190010;28;20244;-65
2022/01/14 08:53:51;;;;;;;11.18;7.32;;;28.50;72.00;;;;;;4192583;28;20336;-64
2022/01/14 08:55:55;;;;;;;10.85;7.40;;;28.50;72.50;;;;;;4191800;28;20044;-64
2022/01/14 08:58:00;;;;;;;11.65;7.13;;;28.40;72.10;;;;;;4191440;28;20037;-64
2022/01/14 09:00:05;;;;;;;11.20;7.35;;;28.40;71.60;;;;;;4205644;28;20049;-64
2022/01/14 09:02:09;;;;;;;9.23;7.03;;;28.30;72.30;;;;;;4194834;28;20127;-64
2022/01/14 09:04:14;;;;;;;11.63;7.22;;;28.40;72.00;;;;;;4184149;28;20486;-65
2022/01/14 09:06:18;;;;;;;13.77;7.30;;;28.30;72.10;;;;;;4196125;28;20136;-64
2022/01/14 09:08:23;;;;;;;13.45;7.68;;;28.30;72.00;;;;;;4195769;28;20407;-65
2022/01/14 09:10:27;;;;;;;12.00;6.90;;;28.30;72.00;;;;;;4199311;28;20056;-65
2022/01/14 09:12:31;;;;;;;9.68;7.32;;;28.30;72.70;;;;;;4196436;28;20164;-65
2022/01/14 09:14:36;;;;;;;12.77;7.07;;;28.30;72.50;;;;;;4196856;28;20562;-64
2022/01/14 09:16:42;;;;;;;13.45;7.35;;;28.30;72.70;;;;;;4197018;28;20404;-65
2022/01/14 09:18:48;;;;;;;10.30;6.93;;;28.30;72.60;;;;;;4195558;28;20060;-65
2022/01/14 09:20:52;;;;;;;8.75;6.25;;;28.30;73.20;;;;;;4196977;28;20075;-64
2022/01/14 09:22:59;;;;;;;11.05;7.03;;;28.30;73.30;;;;;;4196604;28;20048;-64
2022/01/14 09:25:07;;;;;;;11.88;7.05;;;28.30;73.30;;;;;;4196439;28;20078;-64
2022/01/14 09:27:11;;;;;;;12.63;7.35;;;28.30;73.50;;;;;;4195907;28;20091;-65
2022/01/14 09:29:16;;;;;;;13.75;7.25;;;28.40;73.80;;;;;;4195701;28;20051;-65
2022/01/14 09:31:21;;;;;;;12.25;7.20;;;28.40;74.50;;;;;;4195989;28;20529;-65
2022/01/14 09:33:25;;;;;;;10.90;7.30;;;28.40;74.70;;;;;;4196672;28;20494;-64
2022/01/14 09:35:29;;;;;;;16.98;7.25;;;28.40;74.70;;;;;;4194175;28;20048;-65
2022/01/14 09:37:33;;;;;;;10.02;6.78;;;28.40;73.00;;;;;;4196693;28;20045;-66
2022/01/14 09:39:43;;;;;;;10.73;6.78;;;28.30;73.40;;;;;;4194694;28;20052;-65
2022/01/14 09:41:47;;;;;;;13.70;6.95;;;28.40;74.30;;;;;;4191799;28;20437;-65
2022/01/14 09:44:33;;;;;;;13.88;6.93;;;28.40;74.00;;;;;;4193780;28;20072;-65
2022/01/14 09:46:38;;;;;;;18.27;6.55;;;28.40;73.90;;;;;;4178140;28;20048;-63
2022/01/14 09:48:45;;;;;;;17.27;7.93;;;28.40;74.20;;;;;;4193474;28;20036;-64
2022/01/14 09:50:52;;;;;;;11.50;6.28;;;28.40;73.90;;;;;;4201339;28;20107;-65
2022/01/14 09:52:56;;;;;;;15.40;7.28;;;28.40;74.30;;;;;;4198600;28;20051;-64
2022/01/14 09:55:00;;;;;;;15.82;7.30;;;28.40;74.10;;;;;;4204937;28;20086;-65
2022/01/14 09:57:07;;;;;;;9.68;6.90;;;28.30;74.40;;;;;;4201962;28;20584;-64
2022/01/14 09:59:11;;;;;;;10.13;6.65;;;28.30;73.30;;;;;;4201933;28;20044;-64
2022/01/14 10:01:20;;;;;;;12.15;6.80;;;28.30;73.80;;;;;;4199453;28;20052;-64
2022/01/14 10:03:25;;;;;;;13.15;6.70;;;28.30;73.70;;;;;;4200535;28;20390;-65
2022/01/14 10:05:37;;;;;;;8.70;6.07;;;28.30;73.80;;;;;;4200276;28;20110;-64
2022/01/14 10:07:42;;;;;;;10.68;7.10;;;28.30;74.00;;;;;;4197982;28;20032;-64
2022/01/14 10:09:54;;;;;;;11.20;6.30;;;28.30;74.20;;;;;;4196020;28;20051;-64
2022/01/14 10:12:13;;;;;;;12.35;6.97;;;28.30;74.50;;;;;;4200790;28;20048;-64
2022/01/14 10:14:20;;;;;;;9.82;6.72;;;28.30;74.30;;;;;;4199803;28;20059;-64
2022/01/14 10:16:24;;;;;;;11.35;6.60;;;28.30;73.70;;;;;;4196378;28;20051;-64
2022/01/14 10:18:29;;;;;;;10.52;6.65;;;28.30;73.90;;;;;;4196107;28;20507;-64
2022/01/14 10:20:37;;;;;;;15.77;6.90;;;28.20;73.90;;;;;;4196252;28;20469;-61
2022/01/14 10:22:45;;;;;;;12.80;6.68;;;28.20;74.10;;;;;;4196450;28;20128;-66
2022/01/14 10:24:58;;;;;;;13.32;6.85;;;28.20;74.60;;;;;;4196424;28;20044;-66
2022/01/14 10:27:03;;;;;;;;;;;28.20;74.80;;;;;;4196566;28;20095;-67
2022/01/14 10:29:07;;;;;;;13.10;7.10;;;28.20;75.10;;;;;;4196065;28;19924;-64
2022/01/14 10:31:14;;;;;;;14.18;7.47;;;28.10;75.10;;;;;;4196218;28;20049;-65
2022/01/14 10:33:22;;;;;;;20.77;8.25;;;28.10;75.00;;;;;;4195703;28;20095;-65
2022/01/14 10:35:29;;;;;;;21.50;8.05;;;28.10;75.40;;;;;;4195792;28;20137;-63
2022/01/14 10:37:34;;;;;;;23.08;7.68;;;28.10;75.80;;;;;;4196094;28;20047;-62
2022/01/14 10:39:49;;;;;;;36.70;9.43;;;28.00;76.20;;;;;;4193964;28;20061;-63
2022/01/14 10:41:55;;;;;;;25.08;8.50;;;28.00;76.70;;;;;;4200556;28;20406;-63
2022/01/14 10:44:29;;;;;;;24.45;9.07;;;28.00;77.00;;;;;;4195149;28;20556;-64
2022/01/14 10:46:36;;;;;;;26.08;13.95;;;28.00;76.90;;;;;;4203195;28;20075;-66
2022/01/14 10:48:46;;;;;;;69.20;40.92;;;27.90;76.90;;;;;;4201458;28;20044;-67
2022/01/14 10:50:58;;;;;;;102.90;60.90;;;27.90;77.20;;;;;;4202584;28;20048;-66
2022/01/14 10:53:08;;;;;;;89.50;50.80;;;27.80;77.40;;;;;;4195705;28;20529;-65
2022/01/14 10:55:34;;;;;;;65.38;36.25;;;27.80;78.00;;;;;;4186846;28;20576;-66
2022/01/14 10:57:38;;;;;;;53.45;29.90;;;27.70;79.20;;;;;;4190700;28;20052;-66
2022/01/14 10:59:42;;;;;;;42.03;24.48;;;27.60;79.10;;;;;;4198229;28;20091;-66
2022/01/14 11:01:49;;;;;;;47.65;22.92;;;27.60;79.80;;;;;;4202949;28;20045;-65
2022/01/14 11:03:56;;;;;;;50.78;23.88;;;27.60;80.40;;;;;;4200828;28;20120;-65
2022/01/14 11:06:33;;;;;;;39.85;21.20;;;27.50;81.00;;;;;;4206827;28;20040;-65
2022/01/14 11:08:39;;;;;;;64.63;20.50;;;27.50;81.70;;;;;;4201002;28;20044;-65